首页
METAR-TAF:

METAR-TAF

机场 :

米蘭-利納特機場

米蘭, 意大利

纬度: 45-26N, 经度: 009-17E, 海拔: 107米

当前天气观测

该预报发布于17分钟前的19:20 UTC
风速2节,风向多变
温度 8°C
湿度 93%
气压 1024 hPa
能見度: 8000

METAR: LIML 181920Z VRB02KT 8000 NSC 08/07 Q1024 NOSIG

时间: 20:37 (19:37 UTC)

预报

该预报发布于2小时和37分钟前的17:00 UTC
预报有效从18日的 18点(UTC)到 19日的 18点(UTC)
风速4节,风向多变
能見度: 7000
成为
从 18日的 19点(UTC)到 18日的 21点(UTC)
能見度: 2500
轻雾
短暂存在
从 19日的 02点(UTC)到 19日的 08点(UTC)
能見度: 0800
多云层高于500英尺
成为
从 19日的 08点(UTC)到 19日的 10点(UTC)
能見度: 7000

TAF: LIML 181700Z 1818/1918 VRB04KT 7000 NSC BECMG 1819/1821 2500 BR TEMPO 1902/1908 0800 FG BKN005 BECMG 1908/1910 7000

超过4000个机场的气象观测和天气预报(METAR&TAF报告)。

可查询的气象台以黄色和红色小点在地图上表示。

将鼠标移到小点上方,可查看气象台名称。

然后点击查看天气观测和预报。

如需切换地图:点击带黑十字的绿色按钮放大地图;点击带横线的绿色按钮缩小地图;或者点击绿色箭头查看邻近地区的地图。


METAR-TAF: